sensor_id;sensor_type;location;lat;lon;timestamp;P1;durP1;ratioP1;P2;durP2;ratioP2
55136;SDS011;41032;47.818;-3.732;2022-10-12T00:01:06;1.88;;;0.60;;
55136;SDS011;41032;47.818;-3.732;2022-10-12T00:03:35;1.85;;;0.50;;
55136;SDS011;41032;47.818;-3.732;2022-10-12T00:06:05;2.28;;;0.63;;
55136;SDS011;41032;47.818;-3.732;2022-10-12T00:08:39;1.10;;;0.57;;
55136;SDS011;41032;47.818;-3.732;2022-10-12T00:11:10;1.30;;;0.70;;
55136;SDS011;41032;47.818;-3.732;2022-10-12T00:13:40;1.25;;;0.52;;
55136;SDS011;41032;47.818;-3.732;2022-10-12T00:16:09;3.67;;;0.90;;
55136;SDS011;41032;47.818;-3.732;2022-10-12T00:18:38;1.30;;;0.65;;
55136;SDS011;41032;47.818;-3.732;2022-10-12T00:21:08;3.38;;;0.68;;
55136;SDS011;41032;47.818;-3.732;2022-10-12T00:23:39;1.23;;;0.63;;
55136;SDS011;41032;47.818;-3.732;2022-10-12T00:26:10;2.63;;;0.55;;
55136;SDS011;41032;47.818;-3.732;2022-10-12T00:28:40;1.52;;;0.50;;
55136;SDS011;41032;47.818;-3.732;2022-10-12T00:31:09;1.00;;;0.90;;
55136;SDS011;41032;47.818;-3.732;2022-10-12T00:33:40;2.63;;;0.77;;
55136;SDS011;41032;47.818;-3.732;2022-10-12T00:38:47;1.08;;;0.60;;
55136;SDS011;41032;47.818;-3.732;2022-10-12T00:41:17;3.97;;;0.60;;
55136;SDS011;41032;47.818;-3.732;2022-10-12T00:43:48;0.98;;;0.50;;
55136;SDS011;41032;47.818;-3.732;2022-10-12T00:46:17;2.97;;;0.88;;
55136;SDS011;41032;47.818;-3.732;2022-10-12T00:48:53;1.33;;;0.70;;
55136;SDS011;41032;47.818;-3.732;2022-10-12T00:51:23;1.20;;;0.60;;
55136;SDS011;41032;47.818;-3.732;2022-10-12T00:53:54;4.50;;;0.90;;
55136;SDS011;41032;47.818;-3.732;2022-10-12T00:56:26;1.35;;;0.38;;
55136;SDS011;41032;47.818;-3.732;2022-10-12T00:58:57;0.95;;;0.70;;
55136;SDS011;41032;47.818;-3.732;2022-10-12T01:01:28;2.72;;;0.60;;
55136;SDS011;41032;47.818;-3.732;2022-10-12T01:03:57;2.17;;;0.80;;
55136;SDS011;41032;47.818;-3.732;2022-10-12T01:06:26;1.70;;;0.88;;
55136;SDS011;41032;47.818;-3.732;2022-10-12T01:08:56;1.55;;;0.70;;
55136;SDS011;41032;47.818;-3.732;2022-10-12T01:11:24;5.18;;;0.70;;
55136;SDS011;41032;47.818;-3.732;2022-10-12T01:13:52;2.05;;;0.68;;
55136;SDS011;41032;47.818;-3.732;2022-10-12T01:22:08;3.65;;;0.70;;
55136;SDS011;41032;47.818;-3.732;2022-10-12T01:24:43;1.48;;;0.60;;
55136;SDS011;41032;47.818;-3.732;2022-10-12T01:27:28;0.73;;;0.50;;
55136;SDS011;41032;47.818;-3.732;2022-10-12T01:30:06;1.10;;;0.77;;
55136;SDS011;41032;47.818;-3.732;2022-10-12T01:32:39;2.67;;;1.00;;
55136;SDS011;41032;47.818;-3.732;2022-10-12T01:35:19;1.63;;;0.77;;
55136;SDS011;41032;47.818;-3.732;2022-10-12T01:37:54;1.08;;;0.70;;
55136;SDS011;41032;47.818;-3.732;2022-10-12T01:40:54;1.67;;;0.63;;
55136;SDS011;41032;47.818;-3.732;2022-10-12T01:43:38;1.95;;;0.90;;
55136;SDS011;41032;47.818;-3.732;2022-10-12T01:48:40;2.22;;;0.57;;
55136;SDS011;41032;47.818;-3.732;2022-10-12T01:51:12;1.33;;;0.60;;
55136;SDS011;41032;47.818;-3.732;2022-10-12T01:53:45;1.33;;;0.80;;
55136;SDS011;41032;47.818;-3.732;2022-10-12T01:56:30;1.45;;;0.60;;
55136;SDS011;41032;47.818;-3.732;2022-10-12T02:02:06;1.63;;;0.60;;
55136;SDS011;41032;47.818;-3.732;2022-10-12T02:04:37;1.80;;;0.80;;
55136;SDS011;41032;47.818;-3.732;2022-10-12T02:07:19;1.30;;;0.65;;
55136;SDS011;41032;47.818;-3.732;2022-10-12T02:09:52;1.15;;;0.80;;
55136;SDS011;41032;47.818;-3.732;2022-10-12T02:12:22;1.60;;;0.75;;
55136;SDS011;41032;47.818;-3.732;2022-10-12T02:14:52;2.00;;;0.80;;
55136;SDS011;41032;47.818;-3.732;2022-10-12T02:17:23;3.33;;;1.08;;
55136;SDS011;41032;47.818;-3.732;2022-10-12T02:19:54;1.40;;;0.75;;
55136;SDS011;41032;47.818;-3.732;2022-10-12T02:22:24;0.85;;;0.60;;
55136;SDS011;41032;47.818;-3.732;2022-10-12T02:27:26;1.20;;;0.75;;
55136;SDS011;41032;47.818;-3.732;2022-10-12T02:29:54;0.65;;;0.47;;
55136;SDS011;41032;47.818;-3.732;2022-10-12T02:32:27;1.92;;;0.70;;
55136;SDS011;41032;47.818;-3.732;2022-10-12T02:35:02;1.60;;;0.50;;
55136;SDS011;41032;47.818;-3.732;2022-10-12T02:38:15;0.98;;;0.50;;
55136;SDS011;41032;47.818;-3.732;2022-10-12T02:40:35;3.30;;;0.95;;
55136;SDS011;41032;47.818;-3.732;2022-10-12T02:43:12;1.50;;;0.65;;
55136;SDS011;41032;47.818;-3.732;2022-10-12T02:45:45;1.23;;;0.80;;
55136;SDS011;41032;47.818;-3.732;2022-10-12T02:48:15;1.20;;;0.80;;
55136;SDS011;41032;47.818;-3.732;2022-10-12T02:50:46;0.90;;;0.70;;
55136;SDS011;41032;47.818;-3.732;2022-10-12T02:53:16;2.47;;;0.60;;
55136;SDS011;41032;47.818;-3.732;2022-10-12T02:55:53;1.98;;;0.95;;
55136;SDS011;41032;47.818;-3.732;2022-10-12T02:58:27;1.92;;;1.05;;
55136;SDS011;41032;47.818;-3.732;2022-10-12T03:00:55;1.30;;;0.80;;
55136;SDS011;41032;47.818;-3.732;2022-10-12T03:03:23;4.22;;;0.63;;
55136;SDS011;41032;47.818;-3.732;2022-10-12T03:05:52;1.50;;;0.65;;
55136;SDS011;41032;47.818;-3.732;2022-10-12T03:08:20;3.30;;;0.57;;
55136;SDS011;41032;47.818;-3.732;2022-10-12T03:10:48;1.05;;;0.60;;
55136;SDS011;41032;47.818;-3.732;2022-10-12T03:13:17;1.10;;;0.63;;
55136;SDS011;41032;47.818;-3.732;2022-10-12T03:15:45;2.22;;;0.90;;
55136;SDS011;41032;47.818;-3.732;2022-10-12T03:18:14;0.57;;;0.47;;
55136;SDS011;41032;47.818;-3.732;2022-10-12T03:20:46;1.38;;;0.60;;
55136;SDS011;41032;47.818;-3.732;2022-10-12T03:23:14;1.20;;;0.70;;
55136;SDS011;41032;47.818;-3.732;2022-10-12T03:25:43;1.60;;;0.60;;
55136;SDS011;41032;47.818;-3.732;2022-10-12T03:28:11;1.52;;;0.57;;
55136;SDS011;41032;47.818;-3.732;2022-10-12T03:30:41;0.55;;;0.45;;
55136;SDS011;41032;47.818;-3.732;2022-10-12T03:33:09;1.25;;;0.60;;
55136;SDS011;41032;47.818;-3.732;2022-10-12T03:35:38;1.77;;;0.70;;
55136;SDS011;41032;47.818;-3.732;2022-10-12T03:38:09;1.13;;;0.55;;
55136;SDS011;41032;47.818;-3.732;2022-10-12T03:40:38;3.33;;;0.68;;
55136;SDS011;41032;47.818;-3.732;2022-10-12T03:43:06;0.93;;;0.60;;
55136;SDS011;41032;47.818;-3.732;2022-10-12T03:45:35;0.95;;;0.70;;
55136;SDS011;41032;47.818;-3.732;2022-10-12T03:48:04;1.05;;;0.63;;
55136;SDS011;41032;47.818;-3.732;2022-10-12T03:50:33;2.30;;;0.85;;
55136;SDS011;41032;47.818;-3.732;2022-10-12T03:53:02;1.08;;;0.70;;
55136;SDS011;41032;47.818;-3.732;2022-10-12T03:55:31;0.80;;;0.45;;
55136;SDS011;41032;47.818;-3.732;2022-10-12T03:58:00;1.30;;;0.68;;
55136;SDS011;41032;47.818;-3.732;2022-10-12T04:00:28;0.70;;;0.55;;
55136;SDS011;41032;47.818;-3.732;2022-10-12T04:02:57;1.35;;;0.60;;
55136;SDS011;41032;47.818;-3.732;2022-10-12T04:05:27;1.52;;;0.68;;
55136;SDS011;41032;47.818;-3.732;2022-10-12T04:07:56;2.03;;;0.50;;
55136;SDS011;41032;47.818;-3.732;2022-10-12T04:10:24;1.42;;;0.80;;
55136;SDS011;41032;47.818;-3.732;2022-10-12T04:12:53;0.85;;;0.52;;
55136;SDS011;41032;47.818;-3.732;2022-10-12T04:15:22;2.40;;;0.60;;
55136;SDS011;41032;47.818;-3.732;2022-10-12T04:17:50;1.67;;;0.73;;
55136;SDS011;41032;47.818;-3.732;2022-10-12T04:20:19;1.65;;;0.50;;
55136;SDS011;41032;47.818;-3.732;2022-10-12T04:22:47;1.25;;;0.70;;
55136;SDS011;41032;47.818;-3.732;2022-10-12T04:25:16;1.05;;;0.60;;
55136;SDS011;41032;47.818;-3.732;2022-10-12T04:27:44;0.60;;;0.40;;
55136;SDS011;41032;47.818;-3.732;2022-10-12T04:30:13;2.50;;;0.50;;
55136;SDS011;41032;47.818;-3.732;2022-10-12T04:32:41;1.40;;;0.55;;
55136;SDS011;41032;47.818;-3.732;2022-10-12T04:35:10;1.80;;;0.80;;
55136;SDS011;41032;47.818;-3.732;2022-10-12T04:37:39;2.10;;;0.60;;
55136;SDS011;41032;47.818;-3.732;2022-10-12T04:40:07;0.75;;;0.60;;
55136;SDS011;41032;47.818;-3.732;2022-10-12T04:42:36;1.35;;;0.50;;
55136;SDS011;41032;47.818;-3.732;2022-10-12T04:45:04;1.80;;;1.00;;
55136;SDS011;41032;47.818;-3.732;2022-10-12T04:47:33;0.70;;;0.57;;
55136;SDS011;41032;47.818;-3.732;2022-10-12T04:50:02;1.00;;;0.50;;
55136;SDS011;41032;47.818;-3.732;2022-10-12T04:52:29;0.50;;;0.50;;
55136;SDS011;41032;47.818;-3.732;2022-10-12T04:54:58;0.65;;;0.57;;
55136;SDS011;41032;47.818;-3.732;2022-10-12T04:57:26;1.15;;;0.63;;
55136;SDS011;41032;47.818;-3.732;2022-10-12T04:59:55;1.95;;;0.60;;
55136;SDS011;41032;47.818;-3.732;2022-10-12T05:02:23;1.23;;;0.75;;
55136;SDS011;41032;47.818;-3.732;2022-10-12T05:04:52;0.70;;;0.50;;
55136;SDS011;41032;47.818;-3.732;2022-10-12T05:07:20;0.80;;;0.52;;
55136;SDS011;41032;47.818;-3.732;2022-10-12T05:09:49;1.30;;;0.40;;
55136;SDS011;41032;47.818;-3.732;2022-10-12T05:12:18;2.60;;;0.93;;
55136;SDS011;41032;47.818;-3.732;2022-10-12T05:14:47;1.10;;;0.50;;
55136;SDS011;41032;47.818;-3.732;2022-10-12T05:17:15;1.08;;;0.63;;
55136;SDS011;41032;47.818;-3.732;2022-10-12T05:19:44;2.83;;;0.80;;
55136;SDS011;41032;47.818;-3.732;2022-10-12T05:22:12;2.25;;;0.90;;
55136;SDS011;41032;47.818;-3.732;2022-10-12T05:24:41;1.90;;;1.00;;
55136;SDS011;41032;47.818;-3.732;2022-10-12T05:27:09;4.97;;;1.00;;
55136;SDS011;41032;47.818;-3.732;2022-10-12T05:29:38;4.47;;;1.00;;
55136;SDS011;41032;47.818;-3.732;2022-10-12T05:32:06;2.25;;;0.70;;
55136;SDS011;41032;47.818;-3.732;2022-10-12T05:34:34;2.17;;;0.90;;
55136;SDS011;41032;47.818;-3.732;2022-10-12T05:37:03;3.50;;;0.65;;
55136;SDS011;41032;47.818;-3.732;2022-10-12T05:39:31;1.33;;;0.70;;
55136;SDS011;41032;47.818;-3.732;2022-10-12T05:42:02;2.72;;;1.00;;
55136;SDS011;41032;47.818;-3.732;2022-10-12T05:44:30;2.92;;;0.70;;
55136;SDS011;41032;47.818;-3.732;2022-10-12T05:46:58;2.67;;;0.80;;
55136;SDS011;41032;47.818;-3.732;2022-10-12T05:49:27;1.90;;;0.80;;
55136;SDS011;41032;47.818;-3.732;2022-10-12T05:51:55;2.05;;;0.63;;
55136;SDS011;41032;47.818;-3.732;2022-10-12T05:54:27;2.53;;;0.80;;
55136;SDS011;41032;47.818;-3.732;2022-10-12T05:56:54;0.82;;;0.52;;
55136;SDS011;41032;47.818;-3.732;2022-10-12T05:59:21;4.65;;;0.98;;
55136;SDS011;41032;47.818;-3.732;2022-10-12T06:01:48;4.13;;;0.98;;
55136;SDS011;41032;47.818;-3.732;2022-10-12T06:04:16;1.98;;;1.05;;
55136;SDS011;41032;47.818;-3.732;2022-10-12T06:06:44;2.65;;;0.80;;
55136;SDS011;41032;47.818;-3.732;2022-10-12T06:09:13;2.22;;;0.50;;
55136;SDS011;41032;47.818;-3.732;2022-10-12T06:11:41;4.03;;;0.90;;
55136;SDS011;41032;47.818;-3.732;2022-10-12T06:14:10;5.10;;;1.00;;
55136;SDS011;41032;47.818;-3.732;2022-10-12T06:16:38;1.05;;;0.60;;
55136;SDS011;41032;47.818;-3.732;2022-10-12T06:19:08;3.38;;;0.60;;
55136;SDS011;41032;47.818;-3.732;2022-10-12T06:21:38;1.65;;;0.60;;
55136;SDS011;41032;47.818;-3.732;2022-10-12T06:24:06;2.17;;;0.90;;
55136;SDS011;41032;47.818;-3.732;2022-10-12T06:26:35;2.78;;;0.80;;
55136;SDS011;41032;47.818;-3.732;2022-10-12T06:29:03;1.92;;;0.63;;
55136;SDS011;41032;47.818;-3.732;2022-10-12T06:31:33;1.48;;;0.70;;
55136;SDS011;41032;47.818;-3.732;2022-10-12T06:34:02;3.30;;;0.80;;
55136;SDS011;41032;47.818;-3.732;2022-10-12T06:36:31;1.73;;;0.70;;
55136;SDS011;41032;47.818;-3.732;2022-10-12T06:38:59;2.78;;;0.98;;
55136;SDS011;41032;47.818;-3.732;2022-10-12T06:41:28;2.08;;;0.73;;
55136;SDS011;41032;47.818;-3.732;2022-10-12T06:43:57;3.42;;;0.80;;
55136;SDS011;41032;47.818;-3.732;2022-10-12T06:46:26;3.35;;;0.70;;
55136;SDS011;41032;47.818;-3.732;2022-10-12T06:48:54;1.77;;;0.60;;
55136;SDS011;41032;47.818;-3.732;2022-10-12T06:51:23;6.70;;;0.70;;
55136;SDS011;41032;47.818;-3.732;2022-10-12T06:53:55;2.28;;;0.77;;
55136;SDS011;41032;47.818;-3.732;2022-10-12T06:56:24;2.60;;;0.85;;
55136;SDS011;41032;47.818;-3.732;2022-10-12T06:58:53;2.70;;;1.23;;
55136;SDS011;41032;47.818;-3.732;2022-10-12T07:01:22;1.13;;;0.60;;
55136;SDS011;41032;47.818;-3.732;2022-10-12T07:03:50;1.10;;;0.60;;
55136;SDS011;41032;47.818;-3.732;2022-10-12T07:06:17;5.28;;;1.13;;
55136;SDS011;41032;47.818;-3.732;2022-10-12T07:08:45;2.70;;;0.95;;
55136;SDS011;41032;47.818;-3.732;2022-10-12T07:11:15;3.70;;;1.13;;
55136;SDS011;41032;47.818;-3.732;2022-10-12T07:13:43;3.03;;;0.98;;
55136;SDS011;41032;47.818;-3.732;2022-10-12T07:16:11;4.30;;;0.93;;
55136;SDS011;41032;47.818;-3.732;2022-10-12T07:18:40;2.47;;;0.80;;
55136;SDS011;41032;47.818;-3.732;2022-10-12T07:21:08;2.17;;;0.60;;
55136;SDS011;41032;47.818;-3.732;2022-10-12T07:23:35;3.40;;;0.80;;
55136;SDS011;41032;47.818;-3.732;2022-10-12T07:26:03;3.38;;;0.88;;
55136;SDS011;41032;47.818;-3.732;2022-10-12T07:28:33;1.17;;;0.68;;
55136;SDS011;41032;47.818;-3.732;2022-10-12T07:31:03;1.35;;;0.50;;
55136;SDS011;41032;47.818;-3.732;2022-10-12T07:33:34;1.05;;;0.70;;
55136;SDS011;41032;47.818;-3.732;2022-10-12T07:36:03;2.45;;;0.88;;
55136;SDS011;41032;47.818;-3.732;2022-10-12T07:38:32;1.58;;;0.85;;
55136;SDS011;41032;47.818;-3.732;2022-10-12T07:41:01;1.75;;;0.80;;
55136;SDS011;41032;47.818;-3.732;2022-10-12T07:43:30;0.98;;;0.63;;
55136;SDS011;41032;47.818;-3.732;2022-10-12T07:45:59;0.93;;;0.50;;
55136;SDS011;41032;47.818;-3.732;2022-10-12T07:48:27;2.05;;;0.82;;
55136;SDS011;41032;47.818;-3.732;2022-10-12T07:51:01;1.65;;;0.93;;
55136;SDS011;41032;47.818;-3.732;2022-10-12T07:53:29;1.92;;;0.65;;
55136;SDS011;41032;47.818;-3.732;2022-10-12T07:56:00;1.48;;;0.60;;
55136;SDS011;41032;47.818;-3.732;2022-10-12T07:58:28;1.67;;;0.95;;
55136;SDS011;41032;47.818;-3.732;2022-10-12T08:00:55;0.68;;;0.50;;
55136;SDS011;41032;47.818;-3.732;2022-10-12T08:03:29;3.50;;;0.73;;
55136;SDS011;41032;47.818;-3.732;2022-10-12T08:05:56;2.20;;;0.70;;
55136;SDS011;41032;47.818;-3.732;2022-10-12T08:08:24;1.10;;;0.73;;
55136;SDS011;41032;47.818;-3.732;2022-10-12T08:10:51;2.80;;;0.80;;
55136;SDS011;41032;47.818;-3.732;2022-10-12T08:13:19;4.40;;;0.75;;
55136;SDS011;41032;47.818;-3.732;2022-10-12T08:15:48;1.30;;;0.70;;
55136;SDS011;41032;47.818;-3.732;2022-10-12T08:18:16;1.23;;;0.80;;
55136;SDS011;41032;47.818;-3.732;2022-10-12T08:20:45;0.80;;;0.60;;
55136;SDS011;41032;47.818;-3.732;2022-10-12T08:23:13;4.10;;;0.95;;
55136;SDS011;41032;47.818;-3.732;2022-10-12T08:25:40;2.35;;;0.80;;
55136;SDS011;41032;47.818;-3.732;2022-10-12T08:28:09;2.13;;;0.80;;
55136;SDS011;41032;47.818;-3.732;2022-10-12T08:30:37;2.15;;;0.88;;
55136;SDS011;41032;47.818;-3.732;2022-10-12T08:33:06;3.90;;;0.68;;
55136;SDS011;41032;47.818;-3.732;2022-10-12T08:35:37;1.95;;;0.93;;
55136;SDS011;41032;47.818;-3.732;2022-10-12T08:38:05;2.60;;;0.75;;
55136;SDS011;41032;47.818;-3.732;2022-10-12T08:40:35;2.83;;;0.50;;
55136;SDS011;41032;47.818;-3.732;2022-10-12T08:43:15;1.75;;;0.70;;
55136;SDS011;41032;47.818;-3.732;2022-10-12T08:46:07;1.35;;;0.70;;
55136;SDS011;41032;47.818;-3.732;2022-10-12T08:51:12;1.67;;;0.60;;
55136;SDS011;41032;47.818;-3.732;2022-10-12T08:56:17;3.45;;;0.70;;
55136;SDS011;41032;47.818;-3.732;2022-10-12T08:58:46;2.67;;;0.95;;
55136;SDS011;41032;47.818;-3.732;2022-10-12T09:01:20;4.10;;;1.20;;
55136;SDS011;41032;47.818;-3.732;2022-10-12T09:12:27;5.57;;;1.27;;
55136;SDS011;41032;47.818;-3.732;2022-10-12T09:15:19;4.65;;;1.33;;
55136;SDS011;41032;47.818;-3.732;2022-10-12T09:17:50;7.85;;;2.08;;
55136;SDS011;41032;47.818;-3.732;2022-10-12T09:20:21;6.18;;;1.45;;
55136;SDS011;41032;47.818;-3.732;2022-10-12T09:22:54;3.17;;;1.23;;
55136;SDS011;41032;47.818;-3.732;2022-10-12T09:25:30;3.75;;;1.20;;
55136;SDS011;41032;47.818;-3.732;2022-10-12T09:28:06;7.78;;;1.63;;
55136;SDS011;41032;47.818;-3.732;2022-10-12T09:30:43;3.78;;;1.25;;
55136;SDS011;41032;47.818;-3.732;2022-10-12T09:33:22;5.80;;;1.48;;
55136;SDS011;41032;47.818;-3.732;2022-10-12T09:35:53;6.18;;;1.83;;
55136;SDS011;41032;47.818;-3.732;2022-10-12T09:38:22;8.30;;;1.38;;
55136;SDS011;41032;47.818;-3.732;2022-10-12T09:40:51;4.68;;;1.17;;
55136;SDS011;41032;47.818;-3.732;2022-10-12T09:43:19;7.45;;;1.75;;
55136;SDS011;41032;47.818;-3.732;2022-10-12T09:45:48;4.85;;;1.70;;
55136;SDS011;41032;47.818;-3.732;2022-10-12T09:48:18;4.20;;;1.65;;
55136;SDS011;41032;47.818;-3.732;2022-10-12T09:53:23;7.88;;;1.20;;
55136;SDS011;41032;47.818;-3.732;2022-10-12T09:55:55;5.43;;;1.40;;
55136;SDS011;41032;47.818;-3.732;2022-10-12T09:58:24;5.30;;;1.67;;
55136;SDS011;41032;47.818;-3.732;2022-10-12T10:01:09;4.63;;;1.17;;
55136;SDS011;41032;47.818;-3.732;2022-10-12T10:03:49;3.85;;;1.13;;
55136;SDS011;41032;47.818;-3.732;2022-10-12T10:06:33;17.75;;;4.55;;
55136;SDS011;41032;47.818;-3.732;2022-10-12T10:09:02;23.40;;;6.18;;
55136;SDS011;41032;47.818;-3.732;2022-10-12T10:11:31;31.48;;;9.68;;
55136;SDS011;41032;47.818;-3.732;2022-10-12T10:13:59;35.85;;;8.18;;
55136;SDS011;41032;47.818;-3.732;2022-10-12T10:16:28;25.70;;;7.40;;
55136;SDS011;41032;47.818;-3.732;2022-10-12T10:18:58;27.77;;;6.75;;
55136;SDS011;41032;47.818;-3.732;2022-10-12T10:23:58;33.13;;;8.82;;
55136;SDS011;41032;47.818;-3.732;2022-10-12T10:26:28;34.00;;;9.02;;
55136;SDS011;41032;47.818;-3.732;2022-10-12T10:31:48;28.65;;;8.30;;
55136;SDS011;41032;47.818;-3.732;2022-10-12T10:34:19;25.50;;;7.22;;
55136;SDS011;41032;47.818;-3.732;2022-10-12T10:36:50;25.63;;;6.65;;
55136;SDS011;41032;47.818;-3.732;2022-10-12T10:40:05;21.63;;;6.72;;
55136;SDS011;41032;47.818;-3.732;2022-10-12T10:42:21;16.77;;;6.13;;
55136;SDS011;41032;47.818;-3.732;2022-10-12T10:44:57;19.73;;;5.63;;
55136;SDS011;41032;47.818;-3.732;2022-10-12T10:47:27;19.70;;;5.07;;
55136;SDS011;41032;47.818;-3.732;2022-10-12T10:49:57;16.15;;;4.82;;
55136;SDS011;41032;47.818;-3.732;2022-10-12T10:52:29;16.90;;;5.07;;
55136;SDS011;41032;47.818;-3.732;2022-10-12T10:57:38;13.98;;;4.47;;
55136;SDS011;41032;47.818;-3.732;2022-10-12T11:00:10;12.82;;;3.95;;
55136;SDS011;41032;47.818;-3.732;2022-10-12T11:03:26;12.32;;;3.88;;
55136;SDS011;41032;47.818;-3.732;2022-10-12T11:05:42;12.48;;;4.07;;
55136;SDS011;41032;47.818;-3.732;2022-10-12T11:08:13;8.10;;;3.03;;
55136;SDS011;41032;47.818;-3.732;2022-10-12T11:10:49;8.50;;;3.15;;
55136;SDS011;41032;47.818;-3.732;2022-10-12T11:13:31;13.35;;;3.20;;
55136;SDS011;41032;47.818;-3.732;2022-10-12T11:16:05;8.25;;;3.33;;
55136;SDS011;41032;47.818;-3.732;2022-10-12T11:18:55;12.05;;;2.60;;
55136;SDS011;41032;47.818;-3.732;2022-10-12T11:21:30;6.38;;;2.10;;
55136;SDS011;41032;47.818;-3.732;2022-10-12T11:26:52;4.90;;;1.80;;
55136;SDS011;41032;47.818;-3.732;2022-10-12T11:29:22;6.97;;;1.98;;
55136;SDS011;41032;47.818;-3.732;2022-10-12T11:31:52;5.72;;;2.17;;
55136;SDS011;41032;47.818;-3.732;2022-10-12T11:34:29;10.23;;;1.65;;
55136;SDS011;41032;47.818;-3.732;2022-10-12T11:36:58;5.85;;;1.55;;
55136;SDS011;41032;47.818;-3.732;2022-10-12T11:39:31;4.15;;;1.88;;
55136;SDS011;41032;47.818;-3.732;2022-10-12T11:42:01;6.47;;;1.77;;
55136;SDS011;41032;47.818;-3.732;2022-10-12T11:47:12;5.43;;;1.42;;
55136;SDS011;41032;47.818;-3.732;2022-10-12T11:49:49;6.57;;;1.52;;
55136;SDS011;41032;47.818;-3.732;2022-10-12T11:52:21;5.85;;;1.45;;
55136;SDS011;41032;47.818;-3.732;2022-10-12T11:54:53;13.23;;;2.25;;
55136;SDS011;41032;47.818;-3.732;2022-10-12T11:57:43;8.18;;;1.90;;
55136;SDS011;41032;47.818;-3.732;2022-10-12T12:00:16;7.35;;;1.90;;
55136;SDS011;41032;47.818;-3.732;2022-10-12T12:02:50;6.35;;;1.73;;
55136;SDS011;41032;47.818;-3.732;2022-10-12T12:05:22;6.93;;;1.70;;
55136;SDS011;41032;47.818;-3.732;2022-10-12T12:07:56;5.22;;;1.75;;
55136;SDS011;41032;47.818;-3.732;2022-10-12T12:13:17;8.43;;;1.70;;
55136;SDS011;41032;47.818;-3.732;2022-10-12T12:18:16;5.28;;;1.92;;
55136;SDS011;41032;47.818;-3.732;2022-10-12T12:23:57;5.03;;;1.50;;
55136;SDS011;41032;47.818;-3.732;2022-10-12T12:28:38;8.15;;;1.65;;
55136;SDS011;41032;47.818;-3.732;2022-10-12T12:31:12;5.22;;;1.92;;
55136;SDS011;41032;47.818;-3.732;2022-10-12T12:33:43;10.30;;;2.38;;
55136;SDS011;41032;47.818;-3.732;2022-10-12T12:36:30;6.75;;;2.22;;
55136;SDS011;41032;47.818;-3.732;2022-10-12T12:39:00;4.80;;;1.50;;
55136;SDS011;41032;47.818;-3.732;2022-10-12T12:41:51;6.15;;;1.60;;
55136;SDS011;41032;47.818;-3.732;2022-10-12T12:44:42;7.00;;;1.42;;
55136;SDS011;41032;47.818;-3.732;2022-10-12T12:52:11;8.52;;;2.30;;
55136;SDS011;41032;47.818;-3.732;2022-10-12T12:55:04;7.57;;;1.90;;
55136;SDS011;41032;47.818;-3.732;2022-10-12T13:00:31;3.53;;;1.35;;
55136;SDS011;41032;47.818;-3.732;2022-10-12T13:11:44;6.40;;;1.67;;
55136;SDS011;41032;47.818;-3.732;2022-10-12T13:14:28;6.00;;;1.90;;
55136;SDS011;41032;47.818;-3.732;2022-10-12T13:17:20;6.15;;;1.60;;
55136;SDS011;41032;47.818;-3.732;2022-10-12T13:19:59;5.63;;;1.48;;
55136;SDS011;41032;47.818;-3.732;2022-10-12T13:22:42;5.78;;;1.50;;
55136;SDS011;41032;47.818;-3.732;2022-10-12T13:25:13;4.47;;;1.20;;
55136;SDS011;41032;47.818;-3.732;2022-10-12T13:27:48;5.25;;;1.20;;
55136;SDS011;41032;47.818;-3.732;2022-10-12T13:35:42;6.95;;;1.70;;
55136;SDS011;41032;47.818;-3.732;2022-10-12T13:38:20;3.95;;;1.42;;
55136;SDS011;41032;47.818;-3.732;2022-10-12T13:41:10;4.57;;;1.50;;
55136;SDS011;41032;47.818;-3.732;2022-10-12T13:46:39;9.70;;;1.67;;
55136;SDS011;41032;47.818;-3.732;2022-10-12T13:51:46;5.05;;;1.83;;
55136;SDS011;41032;47.818;-3.732;2022-10-12T13:57:02;4.13;;;1.27;;
55136;SDS011;41032;47.818;-3.732;2022-10-12T13:59:35;3.95;;;1.08;;
55136;SDS011;41032;47.818;-3.732;2022-10-12T14:02:14;6.28;;;1.40;;
55136;SDS011;41032;47.818;-3.732;2022-10-12T14:04:45;5.32;;;1.45;;
55136;SDS011;41032;47.818;-3.732;2022-10-12T14:07:17;5.65;;;1.15;;
55136;SDS011;41032;47.818;-3.732;2022-10-12T14:09:57;7.57;;;1.50;;
55136;SDS011;41032;47.818;-3.732;2022-10-12T14:12:31;6.28;;;1.05;;
55136;SDS011;41032;47.818;-3.732;2022-10-12T14:15:02;5.03;;;1.13;;
55136;SDS011;41032;47.818;-3.732;2022-10-12T14:17:31;6.88;;;2.10;;
55136;SDS011;41032;47.818;-3.732;2022-10-12T14:20:40;3.85;;;1.17;;
55136;SDS011;41032;47.818;-3.732;2022-10-12T14:23:09;4.90;;;1.10;;
55136;SDS011;41032;47.818;-3.732;2022-10-12T14:25:51;5.57;;;1.73;;
55136;SDS011;41032;47.818;-3.732;2022-10-12T14:28:30;4.13;;;1.40;;
55136;SDS011;41032;47.818;-3.732;2022-10-12T14:31:00;5.55;;;1.20;;
55136;SDS011;41032;47.818;-3.732;2022-10-12T14:33:29;5.45;;;1.83;;
55136;SDS011;41032;47.818;-3.732;2022-10-12T14:38:50;3.95;;;1.33;;
55136;SDS011;41032;47.818;-3.732;2022-10-12T14:42:03;4.97;;;1.00;;
55136;SDS011;41032;47.818;-3.732;2022-10-12T14:44:12;3.78;;;1.20;;
55136;SDS011;41032;47.818;-3.732;2022-10-12T14:46:42;3.40;;;1.02;;
55136;SDS011;41032;47.818;-3.732;2022-10-12T14:49:19;6.18;;;1.40;;
55136;SDS011;41032;47.818;-3.732;2022-10-12T14:51:49;3.00;;;0.85;;
55136;SDS011;41032;47.818;-3.732;2022-10-12T14:54:19;4.85;;;1.10;;
55136;SDS011;41032;47.818;-3.732;2022-10-12T14:56:48;3.60;;;1.00;;
55136;SDS011;41032;47.818;-3.732;2022-10-12T14:59:15;3.50;;;0.90;;
55136;SDS011;41032;47.818;-3.732;2022-10-12T15:01:44;3.17;;;0.90;;
55136;SDS011;41032;47.818;-3.732;2022-10-12T15:04:12;4.82;;;1.20;;
55136;SDS011;41032;47.818;-3.732;2022-10-12T15:06:41;4.85;;;1.52;;
55136;SDS011;41032;47.818;-3.732;2022-10-12T15:09:09;3.33;;;0.85;;
55136;SDS011;41032;47.818;-3.732;2022-10-12T15:11:39;1.92;;;0.85;;
55136;SDS011;41032;47.818;-3.732;2022-10-12T15:14:08;4.15;;;1.10;;
55136;SDS011;41032;47.818;-3.732;2022-10-12T15:16:38;2.70;;;0.88;;
55136;SDS011;41032;47.818;-3.732;2022-10-12T15:19:06;2.63;;;0.75;;
55136;SDS011;41032;47.818;-3.732;2022-10-12T15:21:35;3.00;;;0.70;;
55136;SDS011;41032;47.818;-3.732;2022-10-12T15:24:07;2.85;;;0.82;;
55136;SDS011;41032;47.818;-3.732;2022-10-12T15:26:40;2.92;;;0.70;;
55136;SDS011;41032;47.818;-3.732;2022-10-12T15:29:08;2.70;;;1.00;;
55136;SDS011;41032;47.818;-3.732;2022-10-12T15:31:36;1.88;;;0.80;;
55136;SDS011;41032;47.818;-3.732;2022-10-12T15:34:09;1.90;;;0.63;;
55136;SDS011;41032;47.818;-3.732;2022-10-12T15:36:39;2.97;;;1.10;;
55136;SDS011;41032;47.818;-3.732;2022-10-12T15:39:07;2.38;;;0.60;;
55136;SDS011;41032;47.818;-3.732;2022-10-12T15:41:36;6.00;;;0.85;;
55136;SDS011;41032;47.818;-3.732;2022-10-12T15:44:05;2.10;;;0.90;;
55136;SDS011;41032;47.818;-3.732;2022-10-12T15:46:36;3.15;;;0.98;;
55136;SDS011;41032;47.818;-3.732;2022-10-12T15:49:04;1.92;;;0.65;;
55136;SDS011;41032;47.818;-3.732;2022-10-12T15:51:35;1.35;;;0.57;;
55136;SDS011;41032;47.818;-3.732;2022-10-12T15:54:06;2.13;;;0.90;;
55136;SDS011;41032;47.818;-3.732;2022-10-12T15:56:35;6.57;;;0.98;;
55136;SDS011;41032;47.818;-3.732;2022-10-12T15:59:04;2.90;;;1.00;;
55136;SDS011;41032;47.818;-3.732;2022-10-12T16:01:33;1.23;;;0.60;;
55136;SDS011;41032;47.818;-3.732;2022-10-12T16:04:03;1.88;;;0.63;;
55136;SDS011;41032;47.818;-3.732;2022-10-12T16:06:32;2.05;;;0.60;;
55136;SDS011;41032;47.818;-3.732;2022-10-12T16:09:00;3.35;;;0.73;;
55136;SDS011;41032;47.818;-3.732;2022-10-12T16:11:30;5.05;;;0.82;;
55136;SDS011;41032;47.818;-3.732;2022-10-12T16:13:58;1.98;;;0.60;;
55136;SDS011;41032;47.818;-3.732;2022-10-12T16:16:26;2.70;;;0.88;;
55136;SDS011;41032;47.818;-3.732;2022-10-12T16:18:56;1.92;;;0.80;;
55136;SDS011;41032;47.818;-3.732;2022-10-12T16:21:26;2.42;;;0.50;;
55136;SDS011;41032;47.818;-3.732;2022-10-12T16:23:54;3.53;;;0.90;;
55136;SDS011;41032;47.818;-3.732;2022-10-12T16:26:23;2.33;;;0.68;;
55136;SDS011;41032;47.818;-3.732;2022-10-12T16:28:52;1.65;;;0.60;;